Teo, Spain
Current Conditions -  °F | °C
As of 2:00 AM on Sunday 21 Dec 2014 (Local Time) from LEST Reporting Station
Haze Haze  
Wind Chill: 48°   Ceiling: Unl
Heat Index: 48°   Visibility: 3mi
Dew Point: 48°   Wind: 3mph
Humidity: 100%   Direction: 100°E
Pressure: 30.56"   Gusts: NA
Location:  42.75°N, 8.5°W
Report Text: LEST 210100Z 10003KT 5000 BR FEW001 SCT028 09/09 Q1035 TEMPO 0500 FG BKN002
Loading
Personal Weather Stations






























Interactive Weather Map New forecast layout! Learn more

10-Day Weather Forecast

Advertisements
Track Severe Weather on mobile